createdAt,value
2024-02-20T01:53:12.892Z,5.10
2024-02-20T02:00:14.680Z,5.03
2024-02-20T02:07:16.317Z,5.32
2024-02-20T02:14:18.013Z,4.93
2024-02-20T02:21:19.921Z,4.80
2024-02-20T02:28:22.114Z,4.32
2024-02-20T03:41:43.783Z,3.97
2024-02-20T03:48:45.487Z,3.47
2024-02-20T03:55:47.150Z,3.55
2024-02-20T04:02:48.746Z,3.15
2024-02-20T04:09:50.338Z,2.55
2024-02-20T04:16:52.896Z,3.17
2024-02-20T04:23:54.507Z,3.08
2024-02-20T04:30:56.099Z,2.55
2024-02-20T05:40:13.822Z,1.67
2024-02-20T05:47:15.518Z,2.13
2024-02-20T05:54:17.196Z,1.90
2024-02-20T06:01:19.240Z,1.50
2024-02-20T06:08:20.972Z,1.50
2024-02-20T06:15:25.171Z,1.67
2024-02-20T06:22:26.840Z,1.30
2024-02-20T06:29:28.833Z,2.15
2024-02-20T06:36:30.476Z,2.00
2024-02-20T06:43:32.199Z,2.25
2024-02-20T06:50:33.860Z,3.10
2024-02-20T06:57:36.478Z,6.95
2024-02-20T07:04:40.301Z,2.17
2024-02-20T07:11:48.146Z,3.67
2024-02-20T07:18:49.792Z,1.83
2024-02-20T07:25:51.450Z,2.22
2024-02-20T07:32:53.274Z,5.57
2024-02-20T07:39:55.020Z,1.92
2024-02-20T07:46:56.578Z,2.47
2024-02-20T07:53:58.221Z,2.08
2024-02-20T08:01:00.036Z,2.10
2024-02-20T08:08:02.025Z,2.00
2024-02-20T08:15:03.989Z,3.08
2024-02-20T08:22:05.684Z,1.48
2024-02-20T08:29:09.437Z,1.63
2024-02-20T09:49:12.404Z,3.25
2024-02-20T09:56:15.422Z,4.90
2024-02-20T10:03:17.074Z,3.38
2024-02-20T10:10:18.674Z,2.40
2024-02-20T10:17:20.651Z,2.80
2024-02-20T10:24:27.967Z,2.35
2024-02-20T10:31:36.225Z,2.92
2024-02-20T10:38:40.787Z,2.20
2024-02-20T10:45:45.822Z,2.50
2024-02-20T10:52:47.513Z,2.47
2024-02-20T10:59:51.080Z,2.92
2024-02-20T11:06:52.704Z,2.63
2024-02-20T11:13:57.235Z,1.70
2024-02-20T11:21:06.852Z,3.40
2024-02-20T11:28:15.764Z,2.60
2024-02-20T11:35:29.019Z,2.15
2024-02-20T11:42:30.673Z,3.05
2024-02-20T11:49:35.017Z,2.33
2024-02-20T11:56:37.257Z,2.72
2024-02-20T12:03:39.351Z,3.20
2024-02-20T12:10:41.697Z,3.08
2024-02-20T12:17:47.053Z,2.33
2024-02-20T12:24:48.953Z,2.83
2024-02-20T12:31:50.676Z,2.50
2024-02-20T13:37:40.470Z,2.00
2024-02-20T13:44:42.126Z,2.55
2024-02-20T13:51:43.790Z,3.58
2024-02-20T13:58:45.892Z,3.20
2024-02-20T14:05:47.759Z,3.55
2024-02-20T14:12:49.450Z,2.88
2024-02-20T14:19:51.237Z,2.97
2024-02-20T14:26:52.999Z,3.40
2024-02-20T14:33:54.770Z,2.88
2024-02-20T14:40:56.664Z,3.40
2024-02-20T14:47:58.419Z,3.28
2024-02-20T14:55:00.060Z,3.00
2024-02-20T15:02:01.701Z,3.35
2024-02-20T15:09:03.515Z,3.53
2024-02-20T15:16:05.256Z,3.00
2024-02-20T15:23:06.888Z,2.60
2024-02-20T15:30:09.249Z,2.47
2024-02-20T16:41:03.178Z,3.53
2024-02-20T16:48:05.727Z,3.00
2024-02-20T16:55:07.735Z,3.83
2024-02-20T17:02:09.459Z,3.33
2024-02-20T17:09:11.097Z,4.32
2024-02-20T17:16:13.934Z,3.80
2024-02-20T17:23:17.246Z,3.58
2024-02-20T17:30:19.381Z,3.50
2024-02-20T17:37:21.005Z,3.75
2024-02-20T17:44:23.331Z,3.90
2024-02-20T17:51:27.979Z,4.50
2024-02-20T17:58:29.676Z,3.45
2024-02-20T18:05:31.428Z,4.03
2024-02-20T18:12:33.180Z,3.97
2024-02-20T18:19:35.355Z,4.05
2024-02-20T18:26:36.973Z,4.32
2024-02-20T18:33:38.600Z,3.97
2024-02-20T18:40:40.426Z,3.78
2024-02-20T18:47:42.403Z,3.78
2024-02-20T18:54:44.303Z,3.92
2024-02-20T19:01:49.665Z,4.50
2024-02-20T19:08:51.338Z,3.97
2024-02-20T19:15:52.934Z,3.53
2024-02-20T19:22:54.619Z,4.82
2024-02-20T19:29:57.675Z,3.92
2024-02-20T20:53:31.296Z,4.95
2024-02-20T21:00:37.744Z,4.70
2024-02-20T21:07:39.496Z,4.50
2024-02-20T21:14:41.512Z,4.45
2024-02-20T21:21:44.252Z,5.63
2024-02-20T21:28:46.743Z,4.55
2024-02-20T21:35:48.501Z,5.72
2024-02-20T21:42:50.155Z,4.50
2024-02-20T21:49:51.771Z,4.70
2024-02-20T21:56:53.486Z,5.65
2024-02-20T22:03:55.107Z,6.00
2024-02-20T22:10:59.435Z,5.07
2024-02-20T22:18:01.209Z,5.20
2024-02-20T22:25:02.814Z,5.22
